sensor_id;sensor_type;location;lat;lon;timestamp;temperature;humidity
21815;DHT22;11069;48.988;8.450;2024-03-25T00:01:54;6.60;99.90
21815;DHT22;11069;48.988;8.450;2024-03-25T00:04:20;6.60;99.90
21815;DHT22;11069;48.988;8.450;2024-03-25T00:06:48;6.60;99.90
21815;DHT22;11069;48.988;8.450;2024-03-25T00:09:14;6.60;99.90
21815;DHT22;11069;48.988;8.450;2024-03-25T00:11:41;6.60;99.90
21815;DHT22;11069;48.988;8.450;2024-03-25T00:14:07;6.60;99.90
21815;DHT22;11069;48.988;8.450;2024-03-25T00:16:33;6.50;99.90
21815;DHT22;11069;48.988;8.450;2024-03-25T00:18:59;6.50;99.90
21815;DHT22;11069;48.988;8.450;2024-03-25T00:21:25;6.50;99.90
21815;DHT22;11069;48.988;8.450;2024-03-25T00:23:51;6.50;99.90
21815;DHT22;11069;48.988;8.450;2024-03-25T00:26:16;6.50;99.90
21815;DHT22;11069;48.988;8.450;2024-03-25T00:28:42;6.50;99.90
21815;DHT22;11069;48.988;8.450;2024-03-25T00:31:09;6.50;99.90
21815;DHT22;11069;48.988;8.450;2024-03-25T00:33:34;6.50;99.90
21815;DHT22;11069;48.988;8.450;2024-03-25T00:36:00;6.50;99.90
21815;DHT22;11069;48.988;8.450;2024-03-25T00:38:26;6.50;99.90
21815;DHT22;11069;48.988;8.450;2024-03-25T00:40:52;6.50;99.90
21815;DHT22;11069;48.988;8.450;2024-03-25T00:43:17;6.50;99.90
21815;DHT22;11069;48.988;8.450;2024-03-25T00:45:43;6.50;99.90
21815;DHT22;11069;48.988;8.450;2024-03-25T00:48:09;6.50;99.90
21815;DHT22;11069;48.988;8.450;2024-03-25T00:50:34;6.50;99.90
21815;DHT22;11069;48.988;8.450;2024-03-25T00:53:00;6.50;99.90
21815;DHT22;11069;48.988;8.450;2024-03-25T00:55:26;6.50;99.90
21815;DHT22;11069;48.988;8.450;2024-03-25T00:57:51;6.50;99.90
21815;DHT22;11069;48.988;8.450;2024-03-25T01:00:17;6.60;99.90
21815;DHT22;11069;48.988;8.450;2024-03-25T01:02:43;6.50;99.90
21815;DHT22;11069;48.988;8.450;2024-03-25T01:05:09;6.50;99.90
21815;DHT22;11069;48.988;8.450;2024-03-25T01:07:35;6.50;99.90
21815;DHT22;11069;48.988;8.450;2024-03-25T01:10:01;6.50;99.90
21815;DHT22;11069;48.988;8.450;2024-03-25T01:12:26;6.40;99.90
21815;DHT22;11069;48.988;8.450;2024-03-25T01:14:53;6.40;99.90
21815;DHT22;11069;48.988;8.450;2024-03-25T01:17:19;6.40;99.90
21815;DHT22;11069;48.988;8.450;2024-03-25T01:19:45;6.40;99.90
21815;DHT22;11069;48.988;8.450;2024-03-25T01:22:10;6.40;99.90
21815;DHT22;11069;48.988;8.450;2024-03-25T01:24:36;6.40;99.90
21815;DHT22;11069;48.988;8.450;2024-03-25T01:27:02;6.30;99.90
21815;DHT22;11069;48.988;8.450;2024-03-25T01:29:28;6.40;99.90
21815;DHT22;11069;48.988;8.450;2024-03-25T01:31:53;6.30;99.90
21815;DHT22;11069;48.988;8.450;2024-03-25T01:34:19;6.30;99.90
21815;DHT22;11069;48.988;8.450;2024-03-25T01:36:45;6.30;99.90
21815;DHT22;11069;48.988;8.450;2024-03-25T01:39:10;6.30;99.90
21815;DHT22;11069;48.988;8.450;2024-03-25T01:41:36;6.40;99.90
21815;DHT22;11069;48.988;8.450;2024-03-25T01:44:02;6.30;99.90
21815;DHT22;11069;48.988;8.450;2024-03-25T01:46:28;6.30;99.90
21815;DHT22;11069;48.988;8.450;2024-03-25T01:48:55;6.30;99.90
21815;DHT22;11069;48.988;8.450;2024-03-25T01:51:23;6.20;99.90
21815;DHT22;11069;48.988;8.450;2024-03-25T01:53:49;6.20;99.90
21815;DHT22;11069;48.988;8.450;2024-03-25T01:56:17;6.30;99.90
21815;DHT22;11069;48.988;8.450;2024-03-25T01:58:43;6.30;99.90
21815;DHT22;11069;48.988;8.450;2024-03-25T02:01:09;6.30;99.90
21815;DHT22;11069;48.988;8.450;2024-03-25T02:03:39;6.30;99.90
21815;DHT22;11069;48.988;8.450;2024-03-25T02:06:08;6.30;99.90
21815;DHT22;11069;48.988;8.450;2024-03-25T02:08:36;6.30;99.90
21815;DHT22;11069;48.988;8.450;2024-03-25T02:11:01;6.30;99.90
21815;DHT22;11069;48.988;8.450;2024-03-25T02:13:27;6.30;99.90
21815;DHT22;11069;48.988;8.450;2024-03-25T02:15:53;6.30;99.90
21815;DHT22;11069;48.988;8.450;2024-03-25T02:18:20;6.30;99.90
21815;DHT22;11069;48.988;8.450;2024-03-25T02:20:46;6.30;99.90
21815;DHT22;11069;48.988;8.450;2024-03-25T02:23:12;6.30;99.90
21815;DHT22;11069;48.988;8.450;2024-03-25T02:25:40;6.30;99.90
21815;DHT22;11069;48.988;8.450;2024-03-25T02:28:07;6.30;99.90
21815;DHT22;11069;48.988;8.450;2024-03-25T02:30:32;6.30;99.90
21815;DHT22;11069;48.988;8.450;2024-03-25T02:32:58;6.30;99.90
21815;DHT22;11069;48.988;8.450;2024-03-25T02:35:25;6.30;99.90
21815;DHT22;11069;48.988;8.450;2024-03-25T02:37:51;6.30;99.90
21815;DHT22;11069;48.988;8.450;2024-03-25T02:40:18;6.30;99.90
21815;DHT22;11069;48.988;8.450;2024-03-25T02:42:44;6.30;99.90
21815;DHT22;11069;48.988;8.450;2024-03-25T02:45:10;6.20;99.90
21815;DHT22;11069;48.988;8.450;2024-03-25T02:47:36;6.20;99.90
21815;DHT22;11069;48.988;8.450;2024-03-25T02:50:02;6.30;99.90
21815;DHT22;11069;48.988;8.450;2024-03-25T02:52:27;6.20;99.90
21815;DHT22;11069;48.988;8.450;2024-03-25T02:54:53;6.20;99.90
21815;DHT22;11069;48.988;8.450;2024-03-25T02:57:22;6.20;99.90
21815;DHT22;11069;48.988;8.450;2024-03-25T02:59:48;6.20;99.90
21815;DHT22;11069;48.988;8.450;2024-03-25T03:02:13;6.20;99.90
21815;DHT22;11069;48.988;8.450;2024-03-25T03:04:39;6.20;99.90
21815;DHT22;11069;48.988;8.450;2024-03-25T03:07:04;6.20;99.90
21815;DHT22;11069;48.988;8.450;2024-03-25T03:09:30;6.10;99.90
21815;DHT22;11069;48.988;8.450;2024-03-25T03:11:56;6.20;99.90
21815;DHT22;11069;48.988;8.450;2024-03-25T03:14:21;6.20;99.90
21815;DHT22;11069;48.988;8.450;2024-03-25T03:16:47;6.20;99.90
21815;DHT22;11069;48.988;8.450;2024-03-25T03:19:12;6.20;99.90
21815;DHT22;11069;48.988;8.450;2024-03-25T03:21:38;6.10;99.90
21815;DHT22;11069;48.988;8.450;2024-03-25T03:24:04;6.10;99.90
21815;DHT22;11069;48.988;8.450;2024-03-25T03:26:30;6.10;99.90
21815;DHT22;11069;48.988;8.450;2024-03-25T03:28:56;6.10;99.90
21815;DHT22;11069;48.988;8.450;2024-03-25T03:31:22;6.20;99.90
21815;DHT22;11069;48.988;8.450;2024-03-25T03:33:48;6.10;99.90
21815;DHT22;11069;48.988;8.450;2024-03-25T03:36:15;6.10;99.90
21815;DHT22;11069;48.988;8.450;2024-03-25T03:38:42;6.10;99.90
21815;DHT22;11069;48.988;8.450;2024-03-25T03:41:07;6.10;99.90
21815;DHT22;11069;48.988;8.450;2024-03-25T03:43:33;6.10;99.90
21815;DHT22;11069;48.988;8.450;2024-03-25T03:45:58;6.10;99.90
21815;DHT22;11069;48.988;8.450;2024-03-25T03:48:24;6.10;99.90
21815;DHT22;11069;48.988;8.450;2024-03-25T03:50:50;6.10;99.90
21815;DHT22;11069;48.988;8.450;2024-03-25T03:53:15;6.10;99.90
21815;DHT22;11069;48.988;8.450;2024-03-25T03:55:41;6.10;99.90
21815;DHT22;11069;48.988;8.450;2024-03-25T03:58:06;6.10;99.90
21815;DHT22;11069;48.988;8.450;2024-03-25T04:00:35;6.10;99.90
21815;DHT22;11069;48.988;8.450;2024-03-25T04:03:01;6.10;99.90
21815;DHT22;11069;48.988;8.450;2024-03-25T04:05:31;6.10;99.90
21815;DHT22;11069;48.988;8.450;2024-03-25T04:07:56;6.10;99.90
21815;DHT22;11069;48.988;8.450;2024-03-25T04:10:23;6.10;99.90
21815;DHT22;11069;48.988;8.450;2024-03-25T04:12:48;6.10;99.90
21815;DHT22;11069;48.988;8.450;2024-03-25T04:15:14;6.10;99.90
21815;DHT22;11069;48.988;8.450;2024-03-25T04:17:43;6.10;99.90
21815;DHT22;11069;48.988;8.450;2024-03-25T04:20:11;6.10;99.90
21815;DHT22;11069;48.988;8.450;2024-03-25T04:22:40;6.10;99.90
21815;DHT22;11069;48.988;8.450;2024-03-25T04:25:06;6.10;99.90
21815;DHT22;11069;48.988;8.450;2024-03-25T04:27:31;6.10;99.90
21815;DHT22;11069;48.988;8.450;2024-03-25T04:29:57;6.10;99.90
21815;DHT22;11069;48.988;8.450;2024-03-25T04:32:22;6.10;99.90
21815;DHT22;11069;48.988;8.450;2024-03-25T04:34:48;6.10;99.90
21815;DHT22;11069;48.988;8.450;2024-03-25T04:37:13;6.10;99.90
21815;DHT22;11069;48.988;8.450;2024-03-25T04:39:40;6.10;99.90
21815;DHT22;11069;48.988;8.450;2024-03-25T04:42:06;6.10;99.90
21815;DHT22;11069;48.988;8.450;2024-03-25T04:44:31;6.00;99.90
21815;DHT22;11069;48.988;8.450;2024-03-25T04:46:57;6.00;99.90
21815;DHT22;11069;48.988;8.450;2024-03-25T04:49:22;5.90;99.90
21815;DHT22;11069;48.988;8.450;2024-03-25T04:51:48;5.80;99.90
21815;DHT22;11069;48.988;8.450;2024-03-25T04:54:17;5.90;99.90
21815;DHT22;11069;48.988;8.450;2024-03-25T04:56:42;5.80;99.90
21815;DHT22;11069;48.988;8.450;2024-03-25T04:59:09;5.80;99.90
21815;DHT22;11069;48.988;8.450;2024-03-25T05:01:35;5.70;99.90
21815;DHT22;11069;48.988;8.450;2024-03-25T05:04:02;5.80;99.90
21815;DHT22;11069;48.988;8.450;2024-03-25T05:06:27;5.70;99.90
21815;DHT22;11069;48.988;8.450;2024-03-25T05:08:53;5.70;99.90
21815;DHT22;11069;48.988;8.450;2024-03-25T05:11:18;5.70;99.90
21815;DHT22;11069;48.988;8.450;2024-03-25T05:13:44;5.50;99.90
21815;DHT22;11069;48.988;8.450;2024-03-25T05:16:10;5.50;99.90
21815;DHT22;11069;48.988;8.450;2024-03-25T05:18:36;5.40;99.90
21815;DHT22;11069;48.988;8.450;2024-03-25T05:21:02;5.40;99.90
21815;DHT22;11069;48.988;8.450;2024-03-25T05:23:28;5.30;99.90
21815;DHT22;11069;48.988;8.450;2024-03-25T05:25:53;5.30;99.90
21815;DHT22;11069;48.988;8.450;2024-03-25T05:28:19;5.20;99.90
21815;DHT22;11069;48.988;8.450;2024-03-25T05:30:44;5.20;99.90
21815;DHT22;11069;48.988;8.450;2024-03-25T05:33:10;5.30;99.90
21815;DHT22;11069;48.988;8.450;2024-03-25T05:35:36;5.30;99.90
21815;DHT22;11069;48.988;8.450;2024-03-25T05:38:02;5.30;99.90
21815;DHT22;11069;48.988;8.450;2024-03-25T05:40:29;5.20;99.90
21815;DHT22;11069;48.988;8.450;2024-03-25T05:42:54;5.20;99.90
21815;DHT22;11069;48.988;8.450;2024-03-25T05:45:20;5.20;99.90
21815;DHT22;11069;48.988;8.450;2024-03-25T05:47:45;5.20;99.90
21815;DHT22;11069;48.988;8.450;2024-03-25T05:50:11;5.10;99.90
21815;DHT22;11069;48.988;8.450;2024-03-25T05:52:36;5.10;99.90
21815;DHT22;11069;48.988;8.450;2024-03-25T05:55:02;5.10;99.90
21815;DHT22;11069;48.988;8.450;2024-03-25T05:57:28;5.10;99.90
21815;DHT22;11069;48.988;8.450;2024-03-25T05:59:53;5.10;99.90
21815;DHT22;11069;48.988;8.450;2024-03-25T06:02:19;5.10;99.90
21815;DHT22;11069;48.988;8.450;2024-03-25T06:04:44;5.30;99.90
21815;DHT22;11069;48.988;8.450;2024-03-25T06:07:10;5.40;99.90
21815;DHT22;11069;48.988;8.450;2024-03-25T06:09:36;5.50;99.90
21815;DHT22;11069;48.988;8.450;2024-03-25T06:12:01;5.60;99.90
21815;DHT22;11069;48.988;8.450;2024-03-25T06:14:27;5.60;99.90
21815;DHT22;11069;48.988;8.450;2024-03-25T06:16:53;5.70;99.90
21815;DHT22;11069;48.988;8.450;2024-03-25T06:19:18;6.00;99.90
21815;DHT22;11069;48.988;8.450;2024-03-25T06:21:44;6.10;99.90
21815;DHT22;11069;48.988;8.450;2024-03-25T06:24:10;6.20;99.90
21815;DHT22;11069;48.988;8.450;2024-03-25T06:26:36;6.20;99.90
21815;DHT22;11069;48.988;8.450;2024-03-25T06:29:02;6.30;99.90
21815;DHT22;11069;48.988;8.450;2024-03-25T06:31:28;6.40;99.90
21815;DHT22;11069;48.988;8.450;2024-03-25T06:34:12;6.70;99.90
21815;DHT22;11069;48.988;8.450;2024-03-25T06:36:43;7.20;99.90
21815;DHT22;11069;48.988;8.450;2024-03-25T06:39:10;8.00;99.90
21815;DHT22;11069;48.988;8.450;2024-03-25T06:41:35;8.30;99.90
21815;DHT22;11069;48.988;8.450;2024-03-25T06:44:01;8.80;99.90
21815;DHT22;11069;48.988;8.450;2024-03-25T06:46:27;9.20;99.90
21815;DHT22;11069;48.988;8.450;2024-03-25T06:48:52;8.70;99.90
21815;DHT22;11069;48.988;8.450;2024-03-25T06:51:18;8.30;99.90
21815;DHT22;11069;48.988;8.450;2024-03-25T06:53:44;8.30;99.90
21815;DHT22;11069;48.988;8.450;2024-03-25T06:56:10;7.90;99.90
21815;DHT22;11069;48.988;8.450;2024-03-25T06:58:35;7.70;99.90
21815;DHT22;11069;48.988;8.450;2024-03-25T07:01:08;7.50;99.90
21815;DHT22;11069;48.988;8.450;2024-03-25T07:03:34;7.40;99.90
21815;DHT22;11069;48.988;8.450;2024-03-25T07:06:01;7.40;99.90
21815;DHT22;11069;48.988;8.450;2024-03-25T07:08:27;7.40;99.90
21815;DHT22;11069;48.988;8.450;2024-03-25T07:10:53;7.40;99.90
21815;DHT22;11069;48.988;8.450;2024-03-25T07:13:19;8.00;99.90
21815;DHT22;11069;48.988;8.450;2024-03-25T07:15:45;9.10;99.90
21815;DHT22;11069;48.988;8.450;2024-03-25T07:18:11;9.90;99.90
21815;DHT22;11069;48.988;8.450;2024-03-25T07:20:42;11.00;99.90
21815;DHT22;11069;48.988;8.450;2024-03-25T07:23:08;11.50;99.90
21815;DHT22;11069;48.988;8.450;2024-03-25T07:25:33;11.70;99.90
21815;DHT22;11069;48.988;8.450;2024-03-25T07:27:59;11.40;99.90
21815;DHT22;11069;48.988;8.450;2024-03-25T07:30:25;12.60;99.90
21815;DHT22;11069;48.988;8.450;2024-03-25T07:32:57;11.90;99.90
21815;DHT22;11069;48.988;8.450;2024-03-25T07:35:24;11.80;99.90
21815;DHT22;11069;48.988;8.450;2024-03-25T07:37:50;12.20;99.90
21815;DHT22;11069;48.988;8.450;2024-03-25T07:40:18;13.00;99.90
21815;DHT22;11069;48.988;8.450;2024-03-25T07:42:44;12.60;99.90
21815;DHT22;11069;48.988;8.450;2024-03-25T07:45:10;13.20;99.90
21815;DHT22;11069;48.988;8.450;2024-03-25T07:47:36;13.30;99.90
21815;DHT22;11069;48.988;8.450;2024-03-25T07:50:02;13.90;99.90
21815;DHT22;11069;48.988;8.450;2024-03-25T07:52:27;14.50;99.90
21815;DHT22;11069;48.988;8.450;2024-03-25T07:54:54;14.50;99.90
21815;DHT22;11069;48.988;8.450;2024-03-25T07:57:19;13.80;99.90
21815;DHT22;11069;48.988;8.450;2024-03-25T07:59:45;13.30;99.90
21815;DHT22;11069;48.988;8.450;2024-03-25T08:02:11;13.30;99.90
21815;DHT22;11069;48.988;8.450;2024-03-25T08:04:37;13.00;99.90
21815;DHT22;11069;48.988;8.450;2024-03-25T08:07:02;12.60;99.90
21815;DHT22;11069;48.988;8.450;2024-03-25T08:09:28;12.10;99.90
21815;DHT22;11069;48.988;8.450;2024-03-25T08:11:54;11.90;99.90
21815;DHT22;11069;48.988;8.450;2024-03-25T08:14:20;12.00;99.90
21815;DHT22;11069;48.988;8.450;2024-03-25T08:16:45;12.40;99.90
21815;DHT22;11069;48.988;8.450;2024-03-25T08:19:11;12.60;99.90
21815;DHT22;11069;48.988;8.450;2024-03-25T08:21:37;12.70;99.90
21815;DHT22;11069;48.988;8.450;2024-03-25T08:24:02;12.80;99.90
21815;DHT22;11069;48.988;8.450;2024-03-25T08:26:28;12.70;99.90
21815;DHT22;11069;48.988;8.450;2024-03-25T08:28:53;12.90;99.90
21815;DHT22;11069;48.988;8.450;2024-03-25T08:31:19;12.40;99.90
21815;DHT22;11069;48.988;8.450;2024-03-25T08:33:45;12.70;99.90
21815;DHT22;11069;48.988;8.450;2024-03-25T08:36:10;12.60;99.90
21815;DHT22;11069;48.988;8.450;2024-03-25T08:38:36;12.90;99.90
21815;DHT22;11069;48.988;8.450;2024-03-25T08:41:02;13.50;99.90
21815;DHT22;11069;48.988;8.450;2024-03-25T08:43:28;13.70;99.90
21815;DHT22;11069;48.988;8.450;2024-03-25T08:45:53;13.60;99.90
21815;DHT22;11069;48.988;8.450;2024-03-25T08:48:19;13.50;99.90
21815;DHT22;11069;48.988;8.450;2024-03-25T08:50:44;13.10;99.90
21815;DHT22;11069;48.988;8.450;2024-03-25T08:53:10;12.80;99.90
21815;DHT22;11069;48.988;8.450;2024-03-25T08:55:36;12.30;99.90
21815;DHT22;11069;48.988;8.450;2024-03-25T08:58:01;11.90;99.90
21815;DHT22;11069;48.988;8.450;2024-03-25T09:00:28;12.20;99.90
21815;DHT22;11069;48.988;8.450;2024-03-25T09:02:54;13.00;99.90
21815;DHT22;11069;48.988;8.450;2024-03-25T09:05:20;13.70;98.30
21815;DHT22;11069;48.988;8.450;2024-03-25T09:07:46;14.50;99.60
21815;DHT22;11069;48.988;8.450;2024-03-25T09:10:15;14.50;96.80
21815;DHT22;11069;48.988;8.450;2024-03-25T09:12:59;15.50;92.20
21815;DHT22;11069;48.988;8.450;2024-03-25T09:15:25;15.20;93.70
21815;DHT22;11069;48.988;8.450;2024-03-25T09:17:51;14.90;95.50
21815;DHT22;11069;48.988;8.450;2024-03-25T09:20:16;13.70;94.30
21815;DHT22;11069;48.988;8.450;2024-03-25T09:22:45;13.70;93.20
21815;DHT22;11069;48.988;8.450;2024-03-25T09:25:11;14.20;92.80
21815;DHT22;11069;48.988;8.450;2024-03-25T09:27:36;15.50;90.00
21815;DHT22;11069;48.988;8.450;2024-03-25T09:30:03;16.20;93.80
21815;DHT22;11069;48.988;8.450;2024-03-25T09:32:29;16.30;92.50
21815;DHT22;11069;48.988;8.450;2024-03-25T09:34:58;16.20;90.70
21815;DHT22;11069;48.988;8.450;2024-03-25T09:37:24;15.80;90.70
21815;DHT22;11069;48.988;8.450;2024-03-25T09:39:49;15.90;93.40
21815;DHT22;11069;48.988;8.450;2024-03-25T09:42:18;16.40;91.20
21815;DHT22;11069;48.988;8.450;2024-03-25T09:44:45;15.30;93.10
21815;DHT22;11069;48.988;8.450;2024-03-25T09:47:11;15.90;95.40
21815;DHT22;11069;48.988;8.450;2024-03-25T09:49:40;16.10;94.00
21815;DHT22;11069;48.988;8.450;2024-03-25T09:52:06;17.10;93.60
21815;DHT22;11069;48.988;8.450;2024-03-25T09:54:33;15.40;91.80
21815;DHT22;11069;48.988;8.450;2024-03-25T09:57:00;15.40;94.10
21815;DHT22;11069;48.988;8.450;2024-03-25T09:59:26;15.60;93.90
21815;DHT22;11069;48.988;8.450;2024-03-25T10:01:53;16.40;92.80
21815;DHT22;11069;48.988;8.450;2024-03-25T10:04:19;16.30;93.50
21815;DHT22;11069;48.988;8.450;2024-03-25T10:06:45;16.30;92.40
21815;DHT22;11069;48.988;8.450;2024-03-25T10:09:11;16.90;93.20
21815;DHT22;11069;48.988;8.450;2024-03-25T10:11:36;17.70;91.30
21815;DHT22;11069;48.988;8.450;2024-03-25T10:14:02;16.70;91.40
21815;DHT22;11069;48.988;8.450;2024-03-25T10:16:28;16.80;91.40
21815;DHT22;11069;48.988;8.450;2024-03-25T10:18:54;15.70;90.50
21815;DHT22;11069;48.988;8.450;2024-03-25T10:21:20;16.00;91.20
21815;DHT22;11069;48.988;8.450;2024-03-25T10:23:47;17.50;91.20
21815;DHT22;11069;48.988;8.450;2024-03-25T10:26:26;17.20;88.80
21815;DHT22;11069;48.988;8.450;2024-03-25T10:29:07;16.70;88.60
21815;DHT22;11069;48.988;8.450;2024-03-25T10:31:34;18.10;87.20
21815;DHT22;11069;48.988;8.450;2024-03-25T10:34:00;17.70;90.70
21815;DHT22;11069;48.988;8.450;2024-03-25T10:36:26;16.40;84.90
21815;DHT22;11069;48.988;8.450;2024-03-25T10:38:56;17.30;90.20
21815;DHT22;11069;48.988;8.450;2024-03-25T10:41:23;16.20;85.60
21815;DHT22;11069;48.988;8.450;2024-03-25T10:43:52;18.10;88.90
21815;DHT22;11069;48.988;8.450;2024-03-25T10:46:20;17.90;86.70
21815;DHT22;11069;48.988;8.450;2024-03-25T10:51:26;16.50;91.20
21815;DHT22;11069;48.988;8.450;2024-03-25T10:53:52;16.40;90.30
21815;DHT22;11069;48.988;8.450;2024-03-25T10:56:21;17.40;82.60
21815;DHT22;11069;48.988;8.450;2024-03-25T10:58:50;18.30;83.90
21815;DHT22;11069;48.988;8.450;2024-03-25T11:01:17;18.20;83.70
21815;DHT22;11069;48.988;8.450;2024-03-25T11:03:47;19.50;79.90
21815;DHT22;11069;48.988;8.450;2024-03-25T11:06:16;19.20;80.30
21815;DHT22;11069;48.988;8.450;2024-03-25T11:08:42;18.60;78.60
21815;DHT22;11069;48.988;8.450;2024-03-25T11:11:12;17.50;87.70
21815;DHT22;11069;48.988;8.450;2024-03-25T11:13:38;18.60;82.10
21815;DHT22;11069;48.988;8.450;2024-03-25T11:16:06;18.30;84.60
21815;DHT22;11069;48.988;8.450;2024-03-25T11:18:33;18.90;78.60
21815;DHT22;11069;48.988;8.450;2024-03-25T11:21:06;18.00;78.50
21815;DHT22;11069;48.988;8.450;2024-03-25T11:23:38;19.80;76.60
21815;DHT22;11069;48.988;8.450;2024-03-25T11:26:25;20.30;75.70
21815;DHT22;11069;48.988;8.450;2024-03-25T11:28:55;19.10;74.20
21815;DHT22;11069;48.988;8.450;2024-03-25T11:31:21;18.40;78.80
21815;DHT22;11069;48.988;8.450;2024-03-25T11:33:50;17.00;76.60
21815;DHT22;11069;48.988;8.450;2024-03-25T11:36:15;18.70;82.10
21815;DHT22;11069;48.988;8.450;2024-03-25T11:38:43;19.60;75.20
21815;DHT22;11069;48.988;8.450;2024-03-25T11:41:10;20.00;74.20
21815;DHT22;11069;48.988;8.450;2024-03-25T11:43:36;19.90;77.50
21815;DHT22;11069;48.988;8.450;2024-03-25T11:46:02;19.10;76.80
21815;DHT22;11069;48.988;8.450;2024-03-25T11:48:32;17.20;78.10
21815;DHT22;11069;48.988;8.450;2024-03-25T11:50:57;16.80;78.60
21815;DHT22;11069;48.988;8.450;2024-03-25T11:53:23;17.20;81.10
21815;DHT22;11069;48.988;8.450;2024-03-25T11:55:49;18.80;80.40
21815;DHT22;11069;48.988;8.450;2024-03-25T11:58:15;19.00;80.40
21815;DHT22;11069;48.988;8.450;2024-03-25T12:00:45;19.30;74.00
21815;DHT22;11069;48.988;8.450;2024-03-25T12:03:12;18.40;79.70
21815;DHT22;11069;48.988;8.450;2024-03-25T12:05:40;19.90;78.10
21815;DHT22;11069;48.988;8.450;2024-03-25T12:08:08;19.70;76.20
21815;DHT22;11069;48.988;8.450;2024-03-25T12:10:36;19.10;75.70
21815;DHT22;11069;48.988;8.450;2024-03-25T12:13:21;16.90;79.20
21815;DHT22;11069;48.988;8.450;2024-03-25T12:15:47;15.70;82.80
21815;DHT22;11069;48.988;8.450;2024-03-25T12:18:14;16.00;84.90
21815;DHT22;11069;48.988;8.450;2024-03-25T12:20:40;17.10;84.80
21815;DHT22;11069;48.988;8.450;2024-03-25T12:23:07;18.00;77.60
21815;DHT22;11069;48.988;8.450;2024-03-25T12:25:32;19.10;72.90
21815;DHT22;11069;48.988;8.450;2024-03-25T12:27:58;18.90;70.00
21815;DHT22;11069;48.988;8.450;2024-03-25T12:30:24;18.40;69.10
21815;DHT22;11069;48.988;8.450;2024-03-25T12:32:50;18.90;73.50
21815;DHT22;11069;48.988;8.450;2024-03-25T12:35:18;19.30;69.70
21815;DHT22;11069;48.988;8.450;2024-03-25T12:37:45;19.90;72.60
21815;DHT22;11069;48.988;8.450;2024-03-25T12:40:12;20.10;70.90
21815;DHT22;11069;48.988;8.450;2024-03-25T12:42:40;20.20;68.50
21815;DHT22;11069;48.988;8.450;2024-03-25T12:45:06;20.40;69.60
21815;DHT22;11069;48.988;8.450;2024-03-25T12:47:32;20.80;68.70
21815;DHT22;11069;48.988;8.450;2024-03-25T12:49:58;20.30;69.30
21815;DHT22;11069;48.988;8.450;2024-03-25T12:52:24;19.90;68.50
21815;DHT22;11069;48.988;8.450;2024-03-25T12:54:50;19.60;69.80
21815;DHT22;11069;48.988;8.450;2024-03-25T12:57:16;20.00;69.20
21815;DHT22;11069;48.988;8.450;2024-03-25T12:59:41;20.10;71.10
21815;DHT22;11069;48.988;8.450;2024-03-25T13:02:10;19.50;72.40
21815;DHT22;11069;48.988;8.450;2024-03-25T13:04:36;20.30;68.30
21815;DHT22;11069;48.988;8.450;2024-03-25T13:07:06;19.90;68.80
21815;DHT22;11069;48.988;8.450;2024-03-25T13:09:32;19.50;71.50
21815;DHT22;11069;48.988;8.450;2024-03-25T13:11:58;18.40;72.30
21815;DHT22;11069;48.988;8.450;2024-03-25T13:14:24;17.60;74.00
21815;DHT22;11069;48.988;8.450;2024-03-25T13:16:50;17.40;77.00
21815;DHT22;11069;48.988;8.450;2024-03-25T13:19:15;18.30;76.20
21815;DHT22;11069;48.988;8.450;2024-03-25T13:21:41;19.00;70.90
21815;DHT22;11069;48.988;8.450;2024-03-25T13:24:07;19.30;73.70
21815;DHT22;11069;48.988;8.450;2024-03-25T13:26:33;18.50;73.60
21815;DHT22;11069;48.988;8.450;2024-03-25T13:28:59;18.00;74.30
21815;DHT22;11069;48.988;8.450;2024-03-25T13:31:25;17.50;76.10
21815;DHT22;11069;48.988;8.450;2024-03-25T13:33:50;17.80;77.10
21815;DHT22;11069;48.988;8.450;2024-03-25T13:36:17;18.70;71.60
21815;DHT22;11069;48.988;8.450;2024-03-25T13:38:43;19.40;68.00
21815;DHT22;11069;48.988;8.450;2024-03-25T13:41:08;19.70;67.30
21815;DHT22;11069;48.988;8.450;2024-03-25T13:43:34;19.40;66.40
21815;DHT22;11069;48.988;8.450;2024-03-25T13:46:00;20.30;68.10
21815;DHT22;11069;48.988;8.450;2024-03-25T13:48:25;20.20;67.70
21815;DHT22;11069;48.988;8.450;2024-03-25T13:50:54;20.30;66.50
21815;DHT22;11069;48.988;8.450;2024-03-25T13:53:20;20.20;67.20
21815;DHT22;11069;48.988;8.450;2024-03-25T13:55:45;20.50;67.50
21815;DHT22;11069;48.988;8.450;2024-03-25T13:58:11;19.60;69.30
21815;DHT22;11069;48.988;8.450;2024-03-25T14:00:37;19.50;67.80
21815;DHT22;11069;48.988;8.450;2024-03-25T14:03:03;19.50;70.00
21815;DHT22;11069;48.988;8.450;2024-03-25T14:05:29;19.70;70.70
21815;DHT22;11069;48.988;8.450;2024-03-25T14:07:54;20.20;65.30
21815;DHT22;11069;48.988;8.450;2024-03-25T14:10:21;18.90;71.40
21815;DHT22;11069;48.988;8.450;2024-03-25T14:12:47;20.10;68.30
21815;DHT22;11069;48.988;8.450;2024-03-25T14:15:12;20.40;63.90
21815;DHT22;11069;48.988;8.450;2024-03-25T14:17:38;19.90;68.40
21815;DHT22;11069;48.988;8.450;2024-03-25T14:20:04;19.50;67.80
21815;DHT22;11069;48.988;8.450;2024-03-25T14:22:32;19.60;66.30
21815;DHT22;11069;48.988;8.450;2024-03-25T14:24:58;19.40;66.40
21815;DHT22;11069;48.988;8.450;2024-03-25T14:27:25;18.80;70.20
21815;DHT22;11069;48.988;8.450;2024-03-25T14:29:51;18.80;68.30
21815;DHT22;11069;48.988;8.450;2024-03-25T14:32:20;17.70;71.20
21815;DHT22;11069;48.988;8.450;2024-03-25T14:34:47;18.20;71.20
21815;DHT22;11069;48.988;8.450;2024-03-25T14:37:12;18.50;71.80
21815;DHT22;11069;48.988;8.450;2024-03-25T14:39:38;19.30;68.30
21815;DHT22;11069;48.988;8.450;2024-03-25T14:42:04;20.20;65.10
21815;DHT22;11069;48.988;8.450;2024-03-25T14:44:30;19.90;65.30
21815;DHT22;11069;48.988;8.450;2024-03-25T14:46:56;19.10;68.90
21815;DHT22;11069;48.988;8.450;2024-03-25T14:49:23;18.40;72.90
21815;DHT22;11069;48.988;8.450;2024-03-25T14:51:49;19.30;68.70
21815;DHT22;11069;48.988;8.450;2024-03-25T14:54:17;19.20;66.90
21815;DHT22;11069;48.988;8.450;2024-03-25T14:56:43;19.00;67.00
21815;DHT22;11069;48.988;8.450;2024-03-25T14:59:09;18.80;71.00
21815;DHT22;11069;48.988;8.450;2024-03-25T15:01:34;18.80;72.90
21815;DHT22;11069;48.988;8.450;2024-03-25T15:04:02;18.50;71.30
21815;DHT22;11069;48.988;8.450;2024-03-25T15:06:28;18.80;68.70
21815;DHT22;11069;48.988;8.450;2024-03-25T15:08:53;18.90;68.40
21815;DHT22;11069;48.988;8.450;2024-03-25T15:11:20;17.60;71.10
21815;DHT22;11069;48.988;8.450;2024-03-25T15:13:45;17.50;72.80
21815;DHT22;11069;48.988;8.450;2024-03-25T15:16:11;17.50;71.30
21815;DHT22;11069;48.988;8.450;2024-03-25T15:18:37;17.90;73.00
21815;DHT22;11069;48.988;8.450;2024-03-25T15:21:04;17.70;71.50
21815;DHT22;11069;48.988;8.450;2024-03-25T15:23:31;17.70;70.50
21815;DHT22;11069;48.988;8.450;2024-03-25T15:25:57;17.00;69.90
21815;DHT22;11069;48.988;8.450;2024-03-25T15:28:24;16.60;70.40
21815;DHT22;11069;48.988;8.450;2024-03-25T15:30:50;16.20;75.50
21815;DHT22;11069;48.988;8.450;2024-03-25T15:33:16;16.50;73.90
21815;DHT22;11069;48.988;8.450;2024-03-25T15:35:42;16.50;73.10